createdAt,value
2022-08-05T00:00:23.726Z,101565.88
2022-08-05T00:02:55.364Z,101561.34
2022-08-05T00:05:27.485Z,101570.28
2022-08-05T00:08:32.512Z,101559.34
2022-08-05T00:11:01.346Z,101552.66
2022-08-05T00:13:38.775Z,101542.84
2022-08-05T00:16:12.523Z,101534.03
2022-08-05T00:18:45.573Z,101528.94
2022-08-05T00:21:14.809Z,101537.78
2022-08-05T00:23:53.295Z,101534.03
2022-08-05T00:26:32.373Z,101534.34
2022-08-05T00:29:00.331Z,101522.59
2022-08-05T00:31:53.255Z,101527.53
2022-08-05T00:34:54.079Z,101506.69
2022-08-05T00:37:10.848Z,101517.75
2022-08-05T00:39:44.245Z,101518.91
2022-08-05T00:42:32.538Z,101504.75
2022-08-05T00:45:00.997Z,101497.63
2022-08-05T00:47:53.300Z,101503.31
2022-08-05T00:50:18.701Z,101497.72
2022-08-05T00:52:49.262Z,101505.75
2022-08-05T00:55:17.315Z,101510.22
2022-08-05T00:57:57.933Z,101499.94
2022-08-05T01:00:28.141Z,101506.75
2022-08-05T01:02:56.649Z,101516.91
2022-08-05T01:05:27.421Z,101520.47
2022-08-05T01:08:39.861Z,101536.06
2022-08-05T01:10:52.526Z,101536.06
2022-08-05T01:13:27.358Z,101545.41
2022-08-05T01:16:21.055Z,101548.44
2022-08-05T01:18:59.127Z,101553.63
2022-08-05T01:21:57.455Z,101546.75
2022-08-05T01:24:44.126Z,101546.63
2022-08-05T01:27:26.755Z,101542.41
2022-08-05T01:30:03.418Z,101553.56
2022-08-05T01:32:34.794Z,101567.75
2022-08-05T01:35:10.503Z,101570.63
2022-08-05T01:37:45.283Z,101563.81
2022-08-05T01:40:17.964Z,101558.63
2022-08-05T01:42:48.154Z,101551.91
2022-08-05T01:45:19.212Z,101552.66
2022-08-05T01:47:54.567Z,101545.84
2022-08-05T01:50:30.085Z,101554.19
2022-08-05T01:53:02.571Z,101549.31
2022-08-05T01:55:36.225Z,101546.00
2022-08-05T01:58:29.710Z,101538.59
2022-08-05T02:00:58.756Z,101543.56
2022-08-05T02:03:33.988Z,101549.88
2022-08-05T02:06:33.586Z,101546.56
2022-08-05T02:08:57.829Z,101544.97
2022-08-05T02:11:33.515Z,101545.06
2022-08-05T02:14:12.303Z,101529.06
2022-08-05T02:16:52.836Z,101520.56
2022-08-05T02:19:34.575Z,101535.81
2022-08-05T02:22:10.111Z,101530.03
2022-08-05T02:25:00.207Z,101520.16
2022-08-05T02:27:59.519Z,101525.22
2022-08-05T02:30:18.905Z,101516.56
2022-08-05T02:32:52.699Z,101517.75
2022-08-05T02:35:27.922Z,101522.94
2022-08-05T02:38:00.173Z,101528.69
2022-08-05T02:40:32.658Z,101535.97
2022-08-05T02:43:03.182Z,101541.28
2022-08-05T02:45:52.382Z,101543.59
2022-08-05T02:48:28.991Z,101551.09
2022-08-05T02:51:01.026Z,101555.13
2022-08-05T02:53:39.267Z,101552.81
2022-08-05T02:56:23.616Z,101544.97
2022-08-05T02:58:53.320Z,101559.03
2022-08-05T03:01:25.486Z,101541.84
2022-08-05T03:04:03.304Z,101540.44
2022-08-05T03:06:56.884Z,101541.13
2022-08-05T03:09:37.669Z,101545.81
2022-08-05T03:12:08.133Z,101552.09
2022-08-05T03:14:40.881Z,101563.47
2022-08-05T03:17:14.252Z,101569.09
2022-08-05T03:19:45.597Z,101574.34
2022-08-05T03:22:16.802Z,101575.41
2022-08-05T03:24:50.791Z,101567.19
2022-08-05T03:27:20.443Z,101573.22
2022-08-05T03:30:08.388Z,101580.03
2022-08-05T03:32:40.519Z,101564.22
2022-08-05T03:35:10.901Z,101571.88
2022-08-05T03:37:46.538Z,101569.69
2022-08-05T03:40:24.458Z,101557.13
2022-08-05T03:43:15.789Z,101559.91
2022-08-05T03:45:57.371Z,101551.13
2022-08-05T03:48:26.699Z,101545.03
2022-08-05T03:51:06.921Z,101558.25
2022-08-05T03:55:50.695Z,101551.75
2022-08-05T03:56:46.485Z,101553.50
2022-08-05T03:59:20.324Z,101548.97
2022-08-05T04:01:52.154Z,101543.81
2022-08-05T04:04:22.712Z,101546.81
2022-08-05T04:06:56.822Z,101545.56
2022-08-05T04:09:37.961Z,101541.25
2022-08-05T04:12:23.695Z,101531.41
2022-08-05T04:14:53.642Z,101529.00
2022-08-05T04:17:55.714Z,101531.47
2022-08-05T04:20:24.271Z,101525.47
2022-08-05T04:22:53.705Z,101537.19
2022-08-05T04:25:38.533Z,101527.31
2022-08-05T04:28:13.569Z,101535.31
2022-08-05T04:30:44.159Z,101541.53
2022-08-05T04:33:13.776Z,101545.28
2022-08-05T04:36:16.050Z,101551.53
2022-08-05T04:38:39.804Z,101555.94
2022-08-05T04:41:09.456Z,101553.69
2022-08-05T04:43:40.681Z,101549.59
2022-08-05T04:46:27.895Z,101549.97
2022-08-05T04:48:58.712Z,101547.66
2022-08-05T04:51:30.321Z,101544.03
2022-08-05T04:54:02.287Z,101551.19
2022-08-05T04:56:34.876Z,101549.78
2022-08-05T05:02:41.095Z,101560.94
2022-08-05T05:05:16.826Z,101568.25
2022-08-05T05:08:00.952Z,101569.47
2022-08-05T05:10:33.270Z,101574.66
2022-08-05T05:13:03.983Z,101586.25
2022-08-05T05:15:56.522Z,101583.13
2022-08-05T05:18:28.409Z,101576.13
2022-08-05T05:20:59.988Z,101576.34
2022-08-05T05:24:02.493Z,101575.66
2022-08-05T05:26:18.365Z,101581.66
2022-08-05T05:28:46.725Z,101577.47
2022-08-05T05:31:14.852Z,101582.56
2022-08-05T05:33:59.393Z,101579.84
2022-08-05T05:36:30.535Z,101580.25
2022-08-05T05:38:59.665Z,101587.28
2022-08-05T05:41:40.405Z,101578.53
2022-08-05T05:44:35.931Z,101574.31
2022-08-05T05:47:04.641Z,101579.63
2022-08-05T05:49:56.555Z,101580.25
2022-08-05T05:52:29.971Z,101579.41
2022-08-05T05:55:07.478Z,101570.22
2022-08-05T05:57:52.379Z,101579.06
2022-08-05T06:00:27.721Z,101568.38
2022-08-05T06:03:39.871Z,101558.09
2022-08-05T06:05:57.162Z,101559.84
2022-08-05T06:08:31.511Z,101558.47
2022-08-05T06:11:04.233Z,101555.41
2022-08-05T06:13:40.937Z,101556.94
2022-08-05T06:16:28.555Z,101555.41
2022-08-05T06:19:02.105Z,101559.97
2022-08-05T06:21:38.684Z,101565.34
2022-08-05T06:24:14.813Z,101563.22
2022-08-05T06:26:52.038Z,101563.16
2022-08-05T06:29:46.847Z,101569.50
2022-08-05T06:32:25.585Z,101565.25
2022-08-05T06:37:58.144Z,101571.22
2022-08-05T06:40:32.294Z,101584.00
2022-08-05T06:43:00.813Z,101576.06
2022-08-05T06:45:44.594Z,101583.03
2022-08-05T06:48:56.186Z,101580.66
2022-08-05T06:51:09.338Z,101585.41
2022-08-05T06:53:39.358Z,101585.00
2022-08-05T06:56:25.642Z,101584.22
2022-08-05T06:58:55.352Z,101588.06
2022-08-05T07:01:27.630Z,101586.66
2022-08-05T07:04:01.369Z,101596.13
2022-08-05T07:06:32.031Z,101594.84
2022-08-05T07:09:03.725Z,101596.00
2022-08-05T07:11:36.829Z,101597.22
2022-08-05T07:14:29.591Z,101602.78
2022-08-05T07:17:58.676Z,101608.75
2022-08-05T07:22:42.505Z,101613.31
2022-08-05T07:25:54.332Z,101612.44
2022-08-05T07:28:05.745Z,101605.94
2022-08-05T07:30:39.179Z,101610.06
2022-08-05T07:33:15.921Z,101605.47
2022-08-05T07:36:02.812Z,101602.94
2022-08-05T07:38:43.358Z,101610.78
2022-08-05T07:42:08.541Z,101608.38
2022-08-05T07:44:02.736Z,101605.81
2022-08-05T07:46:33.679Z,101603.78
2022-08-05T07:49:06.138Z,101600.03
2022-08-05T07:51:40.671Z,101597.38
2022-08-05T07:54:16.725Z,101594.75
2022-08-05T07:57:13.299Z,101592.09
2022-08-05T07:59:39.973Z,101599.34
2022-08-05T08:02:15.789Z,101604.47
2022-08-05T08:04:48.671Z,101615.00
2022-08-05T08:07:18.235Z,101615.13
2022-08-05T08:09:52.386Z,101621.31
2022-08-05T08:12:37.419Z,101612.72
2022-08-05T08:15:15.233Z,101627.78
2022-08-05T08:17:46.048Z,101617.97
2022-08-05T08:20:43.037Z,101612.03
2022-08-05T08:24:00.457Z,101624.06
2022-08-05T08:26:00.417Z,101624.94
2022-08-05T08:28:36.654Z,101626.19
2022-08-05T08:31:05.545Z,101633.19
2022-08-05T08:33:36.060Z,101655.59
2022-08-05T08:38:57.385Z,101644.97
2022-08-05T08:41:52.145Z,101646.22
2022-08-05T08:45:16.942Z,101643.22
2022-08-05T08:47:48.137Z,101636.00
2022-08-05T08:50:08.873Z,101651.97
2022-08-05T08:52:52.982Z,101645.16
2022-08-05T08:56:02.137Z,101644.53
2022-08-05T08:58:12.863Z,101640.47
2022-08-05T09:00:44.388Z,101641.97
2022-08-05T09:03:15.974Z,101650.63
2022-08-05T09:06:08.446Z,101640.59
2022-08-05T09:08:52.622Z,101660.28
2022-08-05T09:11:51.301Z,101652.88
2022-08-05T09:14:57.715Z,101661.59
2022-08-05T09:17:16.168Z,101669.72
2022-08-05T09:20:05.344Z,101672.91
2022-08-05T09:23:09.202Z,101683.16
2022-08-05T09:26:02.755Z,101671.44
2022-08-05T09:28:33.772Z,101658.66
2022-08-05T09:31:23.394Z,101672.66
2022-08-05T09:33:59.635Z,101683.31
2022-08-05T09:36:45.776Z,101676.94
2022-08-05T09:39:44.917Z,101674.41
2022-08-05T09:42:24.016Z,101680.38
2022-08-05T09:45:03.165Z,101690.19
2022-08-05T09:47:54.949Z,101684.44
2022-08-05T09:50:37.730Z,101670.38
2022-08-05T09:53:23.033Z,101676.53
2022-08-05T09:56:03.643Z,101684.66
2022-08-05T09:58:34.864Z,101681.66
2022-08-05T10:01:14.822Z,101682.97
2022-08-05T10:03:59.215Z,101682.94
2022-08-05T10:06:28.672Z,101679.28
2022-08-05T10:08:57.489Z,101683.97
2022-08-05T10:11:35.075Z,101691.22
2022-08-05T10:14:21.994Z,101694.44
2022-08-05T10:16:52.808Z,101697.00
2022-08-05T10:19:23.540Z,101688.66
2022-08-05T10:22:00.199Z,101692.97
2022-08-05T10:24:29.321Z,101696.16
2022-08-05T10:27:01.453Z,101695.72
2022-08-05T10:30:41.912Z,101698.28
2022-08-05T10:32:53.047Z,101695.50
2022-08-05T10:35:13.333Z,101691.84
2022-08-05T10:37:44.970Z,101694.56
2022-08-05T10:40:27.833Z,101703.47
2022-08-05T10:43:13.319Z,101709.75
2022-08-05T10:45:44.820Z,101700.81
2022-08-05T10:48:52.311Z,101701.88
2022-08-05T10:51:28.979Z,101701.66
2022-08-05T10:54:00.911Z,101713.34
2022-08-05T10:56:49.322Z,101718.47
2022-08-05T11:00:03.501Z,101715.03
2022-08-05T11:02:14.529Z,101722.09
2022-08-05T11:05:07.330Z,101729.50
2022-08-05T11:08:04.788Z,101734.47
2022-08-05T11:10:49.956Z,101751.13
2022-08-05T11:13:58.056Z,101755.00
2022-08-05T11:16:33.710Z,101762.44
2022-08-05T11:20:10.642Z,101762.88
2022-08-05T11:22:42.588Z,101763.53
2022-08-05T11:26:04.418Z,101789.94
2022-08-05T11:28:46.572Z,101787.41
2022-08-05T11:31:57.801Z,101788.66
2022-08-05T11:34:47.598Z,101801.91
2022-08-05T11:38:30.971Z,101825.34
2022-08-05T11:41:34.246Z,101825.53
2022-08-05T11:44:05.191Z,101821.25
2022-08-05T11:46:37.850Z,101815.53
2022-08-05T11:49:27.963Z,101821.50
2022-08-05T11:51:59.184Z,101855.00
2022-08-05T11:54:33.369Z,101832.38
2022-08-05T11:57:08.661Z,101841.34
2022-08-05T11:59:57.728Z,101851.13
2022-08-05T12:02:33.699Z,101845.56
2022-08-05T12:05:18.047Z,101859.44
2022-08-05T12:08:08.484Z,101860.75
2022-08-05T12:10:45.339Z,101875.38
2022-08-05T12:13:48.998Z,101866.66
2022-08-05T12:16:16.441Z,101873.34
2022-08-05T12:18:49.061Z,101870.81
2022-08-05T12:21:26.943Z,101879.25
2022-08-05T12:24:06.899Z,101869.91
2022-08-05T12:26:38.874Z,101871.94
2022-08-05T12:29:11.872Z,101873.25
2022-08-05T12:31:53.277Z,101894.34
2022-08-05T12:34:28.893Z,101886.56
2022-08-05T12:37:03.350Z,101895.38
2022-08-05T12:39:38.598Z,101891.31
2022-08-05T12:42:14.665Z,101881.16
2022-08-05T12:44:47.570Z,101895.28
2022-08-05T12:47:30.643Z,101895.13
2022-08-05T12:50:05.495Z,101925.22
2022-08-05T12:52:39.014Z,101906.59
2022-08-05T12:55:23.915Z,101935.41
2022-08-05T12:58:49.664Z,101933.69
2022-08-05T13:02:00.488Z,101920.88
2022-08-05T13:03:43.059Z,101921.28
2022-08-05T13:06:18.389Z,101929.53
2022-08-05T13:08:51.583Z,101938.56
2022-08-05T13:11:25.625Z,101941.34
2022-08-05T13:14:20.397Z,101941.38
2022-08-05T13:16:56.894Z,101953.94
2022-08-05T13:19:40.301Z,101951.56
2022-08-05T13:22:28.475Z,101956.00
2022-08-05T13:25:05.795Z,101972.41
2022-08-05T13:27:41.694Z,101958.56
2022-08-05T13:30:32.680Z,101955.56
2022-08-05T13:33:05.802Z,101952.44
2022-08-05T13:35:47.544Z,101960.50
2022-08-05T13:38:30.753Z,101969.34
2022-08-05T13:41:05.952Z,101968.50
2022-08-05T13:43:45.377Z,101976.41
2022-08-05T13:46:50.930Z,101971.31
2022-08-05T13:49:15.688Z,101966.16
2022-08-05T13:51:46.393Z,101973.41
2022-08-05T13:54:20.956Z,101970.44
2022-08-05T13:56:55.721Z,101968.72
2022-08-05T13:59:30.841Z,101984.94
2022-08-05T14:02:02.103Z,101980.03
2022-08-05T14:04:51.466Z,101987.47
2022-08-05T14:07:26.322Z,101997.09
2022-08-05T14:10:18.507Z,101994.75
2022-08-05T14:12:54.574Z,101993.88
2022-08-05T14:16:05.437Z,102004.16
2022-08-05T14:18:18.371Z,102026.56
2022-08-05T14:20:52.946Z,102020.56
2022-08-05T14:23:26.942Z,102014.16
2022-08-05T14:25:59.557Z,102033.34
2022-08-05T14:28:29.619Z,102025.34
2022-08-05T14:31:00.413Z,102024.53
2022-08-05T14:33:32.541Z,102026.28
2022-08-05T14:36:21.598Z,102010.03
2022-08-05T14:38:53.619Z,102016.22
2022-08-05T14:41:23.601Z,102018.03
2022-08-05T14:44:00.310Z,102020.16
2022-08-05T14:46:36.549Z,102025.50
2022-08-05T14:49:08.156Z,102021.88
2022-08-05T14:51:42.802Z,102029.75
2022-08-05T14:54:28.159Z,102036.38
2022-08-05T14:57:05.182Z,102038.69
2022-08-05T14:59:39.618Z,102036.78
2022-08-05T15:02:15.920Z,102044.69
2022-08-05T15:04:56.475Z,102039.41
2022-08-05T15:08:06.860Z,102039.16
2022-08-05T15:10:17.561Z,102037.84
2022-08-05T15:13:04.264Z,102039.94
2022-08-05T15:15:54.018Z,102056.88
2022-08-05T15:18:27.680Z,102048.38
2022-08-05T15:20:59.029Z,102046.00
2022-08-05T15:23:38.050Z,102048.34
2022-08-05T15:26:09.799Z,102049.63
2022-08-05T15:28:42.962Z,102054.97
2022-08-05T15:31:14.813Z,102047.28
2022-08-05T15:34:05.291Z,102043.47
2022-08-05T15:36:36.127Z,102057.94
2022-08-05T15:41:02.881Z,102047.88
2022-08-05T15:42:02.468Z,102059.84
2022-08-05T15:44:55.603Z,102048.97
2022-08-05T15:47:26.990Z,102049.13
2022-08-05T15:49:59.464Z,102055.56
2022-08-05T15:52:53.715Z,102060.69
2022-08-05T15:55:25.139Z,102060.50
2022-08-05T15:58:16.394Z,102058.75
2022-08-05T16:01:03.315Z,102058.34
2022-08-05T16:03:41.151Z,102050.19
2022-08-05T16:06:13.160Z,102048.06
2022-08-05T16:08:51.058Z,102057.66
2022-08-05T16:11:42.329Z,102060.47
2022-08-05T16:14:17.449Z,102064.72
2022-08-05T16:16:50.587Z,102062.78
2022-08-05T16:20:03.671Z,102065.84
2022-08-05T16:22:17.106Z,102074.38
2022-08-05T16:24:51.804Z,102065.47
2022-08-05T16:27:32.272Z,102065.00
2022-08-05T16:30:25.534Z,102075.69
2022-08-05T16:32:58.216Z,102077.22
2022-08-05T16:35:33.546Z,102074.59
2022-08-05T16:38:16.052Z,102075.22
2022-08-05T16:41:00.186Z,102077.78
2022-08-05T16:43:32.759Z,102084.38
2022-08-05T16:46:23.752Z,102083.31
2022-08-05T16:49:09.163Z,102078.66
2022-08-05T16:51:42.622Z,102092.28
2022-08-05T16:54:28.923Z,102089.50
2022-08-05T16:57:00.143Z,102096.88
2022-08-05T16:59:30.792Z,102100.97
2022-08-05T17:02:01.038Z,102092.00
2022-08-05T17:04:32.444Z,102094.78
2022-08-05T17:07:11.477Z,102098.66
2022-08-05T17:09:57.527Z,102100.09
2022-08-05T17:12:51.916Z,102121.16
2022-08-05T17:15:19.903Z,102115.56
2022-08-05T17:17:55.210Z,102106.56
2022-08-05T17:20:26.636Z,102114.03
2022-08-05T17:22:59.034Z,102117.94
2022-08-05T17:25:39.877Z,102120.94
2022-08-05T17:28:10.984Z,102114.31
2022-08-05T17:30:52.059Z,102118.09
2022-08-05T17:33:25.351Z,102116.41
2022-08-05T17:36:07.553Z,102124.25
2022-08-05T17:38:41.452Z,102125.88
2022-08-05T17:42:16.502Z,102118.53
2022-08-05T17:44:03.526Z,102123.94
2022-08-05T17:46:32.006Z,102135.16
2022-08-05T17:49:00.127Z,102135.19
2022-08-05T17:51:28.680Z,102140.44
2022-08-05T17:54:09.141Z,102137.78
2022-08-05T17:56:43.454Z,102142.22
2022-08-05T17:59:20.985Z,102150.78
2022-08-05T18:01:55.459Z,102155.38
2022-08-05T18:04:30.096Z,102156.03
2022-08-05T18:07:04.237Z,102158.00
2022-08-05T18:09:59.072Z,102165.53
2022-08-05T18:12:27.308Z,102163.66
2022-08-05T18:15:00.566Z,102167.22
2022-08-05T18:18:00.750Z,102167.00
2022-08-05T18:20:29.555Z,102176.06
2022-08-05T18:23:12.059Z,102172.16
2022-08-05T18:25:45.049Z,102186.84
2022-08-05T18:28:21.829Z,102186.00
2022-08-05T18:30:53.516Z,102182.84
2022-08-05T18:33:26.352Z,102190.81
2022-08-05T18:36:17.202Z,102187.72
2022-08-05T18:38:51.961Z,102192.00
2022-08-05T18:41:55.605Z,102200.56
2022-08-05T18:44:33.238Z,102197.72
2022-08-05T18:47:05.494Z,102199.59
2022-08-05T18:49:58.048Z,102202.00
2022-08-05T18:52:38.629Z,102207.59
2022-08-05T18:55:10.564Z,102204.00
2022-08-05T18:57:43.571Z,102211.31
2022-08-05T19:00:28.981Z,102214.75
2022-08-05T19:03:04.157Z,102226.47
2022-08-05T19:06:11.915Z,102212.84
2022-08-05T19:08:30.160Z,102218.69
2022-08-05T19:11:05.263Z,102221.00
2022-08-05T19:13:41.298Z,102217.13
2022-08-05T19:16:28.537Z,102220.53
2022-08-05T19:19:01.531Z,102219.53
2022-08-05T19:21:34.629Z,102221.72
2022-08-05T19:24:08.997Z,102223.63
2022-08-05T19:26:54.610Z,102231.22
2022-08-05T19:29:35.981Z,102235.50
2022-08-05T19:32:11.516Z,102237.91
2022-08-05T19:38:26.351Z,102241.22
2022-08-05T19:40:55.811Z,102237.75
2022-08-05T19:44:04.208Z,102252.84
2022-08-05T19:46:27.342Z,102257.34
2022-08-05T19:49:04.215Z,102263.44
2022-08-05T19:52:08.606Z,102262.50
2022-08-05T19:54:30.855Z,102272.59
2022-08-05T19:57:06.230Z,102275.91
2022-08-05T19:59:55.108Z,102275.88
2022-08-05T20:02:32.801Z,102274.03
2022-08-05T20:05:04.965Z,102275.06
2022-08-05T20:07:46.956Z,102277.84
2022-08-05T20:10:22.397Z,102286.41
2022-08-05T20:12:56.890Z,102286.09
2022-08-05T20:15:52.598Z,102286.25
2022-08-05T20:18:33.955Z,102274.03
2022-08-05T20:21:09.623Z,102278.00
2022-08-05T20:23:50.857Z,102286.59
2022-08-05T20:26:27.623Z,102294.16
2022-08-05T20:29:01.190Z,102294.75
2022-08-05T20:31:43.111Z,102304.16
2022-08-05T20:34:23.658Z,102298.22
2022-08-05T20:36:56.758Z,102306.75
2022-08-05T20:39:26.404Z,102305.63
2022-08-05T20:42:07.049Z,102301.78
2022-08-05T20:44:39.929Z,102307.94
2022-08-05T20:47:11.793Z,102307.59
2022-08-05T20:50:11.443Z,102316.72
2022-08-05T20:52:47.662Z,102316.81
2022-08-05T20:55:58.959Z,102320.53
2022-08-05T20:58:18.304Z,102325.91
2022-08-05T21:01:04.524Z,102335.53
2022-08-05T21:03:39.311Z,102333.00
2022-08-05T21:06:27.957Z,102339.34
2022-08-05T21:09:00.425Z,102340.75
2022-08-05T21:12:07.759Z,102342.13
2022-08-05T21:14:26.661Z,102344.56
2022-08-05T21:17:00.593Z,102346.44
2022-08-05T21:19:46.939Z,102346.66
2022-08-05T21:22:23.156Z,102353.06
2022-08-05T21:24:57.663Z,102357.28
2022-08-05T21:27:38.491Z,102354.13
2022-08-05T21:30:11.328Z,102355.25
2022-08-05T21:32:45.735Z,102351.59
2022-08-05T21:35:18.110Z,102359.34
2022-08-05T21:38:01.085Z,102362.50
2022-08-05T21:40:54.316Z,102370.22
2022-08-05T21:43:43.502Z,102363.22
2022-08-05T21:46:35.860Z,102362.31
2022-08-05T21:49:07.366Z,102361.84
2022-08-05T21:52:21.759Z,102367.28
2022-08-05T21:54:31.102Z,102373.28
2022-08-05T21:57:29.614Z,102367.81
2022-08-05T22:00:05.588Z,102366.50
2022-08-05T22:02:45.790Z,102369.00
2022-08-05T22:05:17.534Z,102370.38
2022-08-05T22:07:58.924Z,102373.72
2022-08-05T22:10:32.228Z,102374.91
2022-08-05T22:14:32.725Z,102374.63
2022-08-05T22:16:32.237Z,102369.47
2022-08-05T22:19:00.404Z,102377.88
2022-08-05T22:21:33.679Z,102381.78
2022-08-05T22:24:40.395Z,102383.66
2022-08-05T22:28:08.942Z,102383.88
2022-08-05T22:30:24.603Z,102388.75
2022-08-05T22:33:02.305Z,102387.97
2022-08-05T22:35:38.647Z,102400.56
2022-08-05T22:38:19.102Z,102401.84
2022-08-05T22:40:54.757Z,102409.22
2022-08-05T22:43:36.998Z,102400.78
2022-08-05T22:46:13.615Z,102405.38
2022-08-05T22:48:54.069Z,102407.75
2022-08-05T22:52:03.120Z,102408.13
2022-08-05T22:54:12.683Z,102411.59
2022-08-05T22:56:42.425Z,102416.25
2022-08-05T22:59:45.082Z,102420.28
2022-08-05T23:02:07.792Z,102417.22
2022-08-05T23:04:37.583Z,102418.81
2022-08-05T23:07:12.657Z,102422.28
2022-08-05T23:09:58.256Z,102419.13
2022-08-05T23:12:32.974Z,102427.91
2022-08-05T23:15:08.854Z,102431.91
2022-08-05T23:18:01.025Z,102430.19
2022-08-05T23:20:37.788Z,102426.09
2022-08-05T23:23:21.167Z,102430.19
2022-08-05T23:25:56.518Z,102432.75
2022-08-05T23:28:29.456Z,102429.84
2022-08-05T23:31:16.914Z,102440.31
2022-08-05T23:34:05.935Z,102443.28
2022-08-05T23:36:44.845Z,102447.00
2022-08-05T23:39:32.032Z,102450.19
2022-08-05T23:42:12.094Z,102448.25
2022-08-05T23:45:33.000Z,102446.44
2022-08-05T23:48:29.274Z,102449.53
2022-08-05T23:51:03.021Z,102454.00
2022-08-05T23:53:47.021Z,102446.00
2022-08-05T23:56:27.187Z,102450.69
2022-08-05T23:59:00.873Z,102446.38
